Metar Aviation Weather Data ENHD

-2°C Temp
-2°C Dewpoint
% Humidity
Temperature
16 KM/H
10 MPH
9 KTS
110°
East South
East

Wind Speed
Mostly Cloudy
Conditions
Pressure 1007.92 (hPa) - 29.76 (in)
Visibility 6.2 (mi) - 10 (km)

Current Conditions
ENHD
Metar :ENHD 260750Z 11009KT 9999 VCSH BKN008 M02/M02 Q1008
Tue 26th January 09:50 am

  Metar Aviation API Data Provided by https://www.checkwx.com/ PHP scripts by weather34.com ©2021